Doylestown, Pennsylvania
Current Conditions -  °F | °C
As of 1:54 AM on Thursday 23 Oct 2014 (Local Time) from KDYL Reporting Station
Light Rain Light Rain  
Wind Chill:   Ceiling: 3700
Heat Index:   Visibility: 10mi
Dew Point:   Wind: 13mph
Humidity: 97%   Direction: 360°N
Pressure: 29.76"   Gusts: 21mph
Location:  40.31°N, 75.13°W
Report Text: KDYL 230554Z AUTO 36011G18KT 10SM -RA SCT030 OVC037 09/09 A2976 RMK AO2 RAE30B42 SLP078 P0002 60023 T00940089 10111 20094 56012 $
Loading
Personal Weather Stations






























Interactive Weather Map
Tropical Storm Tracking
New forecast layout! Learn more

10-Day Weather Forecast

Advertisements
Track Severe Weather on mobile